sensor_id;sensor_type;location;lat;lon;timestamp;pressure;altitude;pressure_sealevel;temperature;humidity
23118;BME280;11728;50.624;6.014;2023-04-03T00:03:08;99414.00;;;2.35;97.75
23118;BME280;11728;50.624;6.014;2023-04-03T00:08:08;99416.38;;;2.28;97.71
23118;BME280;11728;50.624;6.014;2023-04-03T00:13:10;99418.03;;;2.25;97.46
23118;BME280;11728;50.624;6.014;2023-04-03T00:18:10;99413.53;;;2.19;97.90
23118;BME280;11728;50.624;6.014;2023-04-03T00:23:11;99419.53;;;2.17;97.51
23118;BME280;11728;50.624;6.014;2023-04-03T00:28:11;99425.69;;;2.19;97.86
23118;BME280;11728;50.624;6.014;2023-04-03T00:33:12;99421.19;;;2.15;97.83
23118;BME280;11728;50.624;6.014;2023-04-03T00:38:13;99419.63;;;2.20;98.91
23118;BME280;11728;50.624;6.014;2023-04-03T00:43:22;99425.66;;;2.17;98.90
23118;BME280;11728;50.624;6.014;2023-04-03T00:48:37;99424.34;;;2.03;99.06
23118;BME280;11728;50.624;6.014;2023-04-03T00:53:45;99414.25;;;1.84;99.63
23118;BME280;11728;50.624;6.014;2023-04-03T00:58:51;99426.13;;;1.75;100.00
23118;BME280;11728;50.624;6.014;2023-04-03T01:03:53;99425.72;;;1.61;100.00
23118;BME280;11728;50.624;6.014;2023-04-03T01:08:54;99432.41;;;1.53;100.00
23118;BME280;11728;50.624;6.014;2023-04-03T01:13:55;99439.00;;;1.43;100.00
23118;BME280;11728;50.624;6.014;2023-04-03T01:18:56;99435.19;;;1.32;100.00
23118;BME280;11728;50.624;6.014;2023-04-03T01:24:04;99430.72;;;1.28;100.00
23118;BME280;11728;50.624;6.014;2023-04-03T01:29:08;99433.22;;;1.25;100.00
23118;BME280;11728;50.624;6.014;2023-04-03T01:34:09;99430.59;;;1.23;100.00
23118;BME280;11728;50.624;6.014;2023-04-03T01:39:09;99429.41;;;1.14;100.00
23118;BME280;11728;50.624;6.014;2023-04-03T01:44:10;99426.75;;;1.12;100.00
23118;BME280;11728;50.624;6.014;2023-04-03T01:49:10;99434.50;;;1.11;100.00
23118;BME280;11728;50.624;6.014;2023-04-03T01:54:10;99421.16;;;1.00;100.00
23118;BME280;11728;50.624;6.014;2023-04-03T01:59:11;99427.97;;;0.97;100.00
23118;BME280;11728;50.624;6.014;2023-04-03T02:04:12;99434.00;;;0.96;100.00
23118;BME280;11728;50.624;6.014;2023-04-03T02:09:12;99440.78;;;0.91;100.00
23118;BME280;11728;50.624;6.014;2023-04-03T02:14:13;99441.41;;;0.84;100.00
23118;BME280;11728;50.624;6.014;2023-04-03T02:19:13;99441.25;;;0.79;100.00
23118;BME280;11728;50.624;6.014;2023-04-03T02:24:14;99448.91;;;0.75;100.00
23118;BME280;11728;50.624;6.014;2023-04-03T02:29:14;99449.09;;;0.81;100.00
23118;BME280;11728;50.624;6.014;2023-04-03T02:34:14;99445.56;;;0.79;100.00
23118;BME280;11728;50.624;6.014;2023-04-03T02:39:15;99448.91;;;0.75;100.00
23118;BME280;11728;50.624;6.014;2023-04-03T02:44:15;99447.75;;;0.67;100.00
23118;BME280;11728;50.624;6.014;2023-04-03T02:49:16;99451.94;;;0.62;100.00
23118;BME280;11728;50.624;6.014;2023-04-03T02:54:16;99446.72;;;0.62;100.00
23118;BME280;11728;50.624;6.014;2023-04-03T02:59:17;99447.41;;;0.57;100.00
23118;BME280;11728;50.624;6.014;2023-04-03T03:04:17;99448.06;;;0.51;100.00
23118;BME280;11728;50.624;6.014;2023-04-03T03:09:18;99446.19;;;0.47;100.00
23118;BME280;11728;50.624;6.014;2023-04-03T03:14:18;99451.53;;;0.52;100.00
23118;BME280;11728;50.624;6.014;2023-04-03T03:19:18;99448.19;;;0.54;100.00
23118;BME280;11728;50.624;6.014;2023-04-03T03:24:19;99439.31;;;0.49;100.00
23118;BME280;11728;50.624;6.014;2023-04-03T03:29:19;99454.03;;;0.49;100.00
23118;BME280;11728;50.624;6.014;2023-04-03T03:34:20;99446.06;;;0.44;100.00
23118;BME280;11728;50.624;6.014;2023-04-03T03:39:20;99444.09;;;0.37;100.00
23118;BME280;11728;50.624;6.014;2023-04-03T03:44:21;99448.44;;;0.37;100.00
23118;BME280;11728;50.624;6.014;2023-04-03T03:49:22;99453.50;;;0.34;100.00
23118;BME280;11728;50.624;6.014;2023-04-03T03:54:22;99453.16;;;0.25;100.00
23118;BME280;11728;50.624;6.014;2023-04-03T03:59:23;99467.72;;;0.20;100.00
23118;BME280;11728;50.624;6.014;2023-04-03T04:04:23;99460.56;;;0.14;100.00
23118;BME280;11728;50.624;6.014;2023-04-03T04:09:23;99461.41;;;0.13;100.00
23118;BME280;11728;50.624;6.014;2023-04-03T04:14:24;99460.44;;;0.11;100.00
23118;BME280;11728;50.624;6.014;2023-04-03T04:19:24;99467.41;;;0.12;100.00
23118;BME280;11728;50.624;6.014;2023-04-03T04:24:25;99473.28;;;0.07;100.00
23118;BME280;11728;50.624;6.014;2023-04-03T04:29:25;99466.16;;;0.01;100.00
23118;BME280;11728;50.624;6.014;2023-04-03T04:34:25;99466.09;;;0.00;100.00
23118;BME280;11728;50.624;6.014;2023-04-03T04:39:26;99460.66;;;-0.06;100.00
23118;BME280;11728;50.624;6.014;2023-04-03T04:44:26;99468.41;;;-0.07;100.00
23118;BME280;11728;50.624;6.014;2023-04-03T04:49:26;99473.72;;;-0.04;100.00
23118;BME280;11728;50.624;6.014;2023-04-03T04:54:27;99477.22;;;-0.03;100.00
23118;BME280;11728;50.624;6.014;2023-04-03T04:59:27;99488.41;;;-0.05;100.00
23118;BME280;11728;50.624;6.014;2023-04-03T05:04:28;99490.81;;;-0.09;100.00
23118;BME280;11728;50.624;6.014;2023-04-03T05:09:28;99488.13;;;-0.12;100.00
23118;BME280;11728;50.624;6.014;2023-04-03T05:14:29;99493.41;;;-0.09;100.00
23118;BME280;11728;50.624;6.014;2023-04-03T05:19:30;99497.00;;;-0.06;100.00
23118;BME280;11728;50.624;6.014;2023-04-03T05:24:30;99503.19;;;-0.03;100.00
23118;BME280;11728;50.624;6.014;2023-04-03T05:29:30;99508.38;;;-0.03;100.00
23118;BME280;11728;50.624;6.014;2023-04-03T05:34:31;99506.97;;;0.05;100.00
23118;BME280;11728;50.624;6.014;2023-04-03T05:39:31;99501.56;;;0.46;100.00
23118;BME280;11728;50.624;6.014;2023-04-03T05:44:32;99504.31;;;0.74;100.00
23118;BME280;11728;50.624;6.014;2023-04-03T05:49:32;99505.81;;;1.17;100.00
23118;BME280;11728;50.624;6.014;2023-04-03T05:54:32;99503.53;;;2.08;100.00
23118;BME280;11728;50.624;6.014;2023-04-03T05:59:33;99496.78;;;3.08;100.00
23118;BME280;11728;50.624;6.014;2023-04-03T06:04:33;99501.84;;;4.10;98.11
23118;BME280;11728;50.624;6.014;2023-04-03T06:09:33;99490.66;;;4.58;94.30
23118;BME280;11728;50.624;6.014;2023-04-03T06:14:34;99495.16;;;5.09;92.44
23118;BME280;11728;50.624;6.014;2023-04-03T06:19:35;99496.47;;;5.87;89.30
23118;BME280;11728;50.624;6.014;2023-04-03T06:24:35;99491.44;;;6.65;86.89
23118;BME280;11728;50.624;6.014;2023-04-03T06:29:37;99489.38;;;7.16;83.85
23118;BME280;11728;50.624;6.014;2023-04-03T06:34:37;99484.53;;;7.61;82.13
23118;BME280;11728;50.624;6.014;2023-04-03T06:39:37;99490.09;;;8.05;79.63
23118;BME280;11728;50.624;6.014;2023-04-03T06:44:38;99490.38;;;8.53;77.72
23118;BME280;11728;50.624;6.014;2023-04-03T06:49:38;99490.56;;;8.98;76.35
23118;BME280;11728;50.624;6.014;2023-04-03T06:54:40;99497.66;;;9.34;74.21
23118;BME280;11728;50.624;6.014;2023-04-03T06:59:40;99497.69;;;9.52;72.51
23118;BME280;11728;50.624;6.014;2023-04-03T07:04:41;99500.31;;;9.90;70.67
23118;BME280;11728;50.624;6.014;2023-04-03T07:09:41;99508.19;;;10.42;68.48
23118;BME280;11728;50.624;6.014;2023-04-03T07:14:42;99504.50;;;10.84;67.82
23118;BME280;11728;50.624;6.014;2023-04-03T07:19:44;99500.81;;;11.15;66.84
23118;BME280;11728;50.624;6.014;2023-04-03T07:24:45;99502.09;;;11.85;64.81
23118;BME280;11728;50.624;6.014;2023-04-03T07:29:46;99494.75;;;12.17;63.09
23118;BME280;11728;50.624;6.014;2023-04-03T07:34:48;99504.63;;;12.81;61.73
23118;BME280;11728;50.624;6.014;2023-04-03T07:39:48;99500.78;;;13.05;59.34
23118;BME280;11728;50.624;6.014;2023-04-03T07:44:49;99502.66;;;12.99;57.07
23118;BME280;11728;50.624;6.014;2023-04-03T07:49:49;99506.88;;;13.15;55.81
23118;BME280;11728;50.624;6.014;2023-04-03T07:54:49;99500.63;;;14.27;54.76
23118;BME280;11728;50.624;6.014;2023-04-03T07:59:50;99507.09;;;14.61;52.37
23118;BME280;11728;50.624;6.014;2023-04-03T08:04:50;99513.44;;;14.98;51.24
23118;BME280;11728;50.624;6.014;2023-04-03T08:09:51;99495.81;;;15.35;49.21
23118;BME280;11728;50.624;6.014;2023-04-03T08:14:51;99493.75;;;15.45;47.71
23118;BME280;11728;50.624;6.014;2023-04-03T08:19:52;99494.88;;;16.43;47.06
23118;BME280;11728;50.624;6.014;2023-04-03T08:24:52;99497.84;;;16.64;45.32
23118;BME280;11728;50.624;6.014;2023-04-03T08:29:53;99495.44;;;16.86;44.28
23118;BME280;11728;50.624;6.014;2023-04-03T08:34:53;99494.34;;;17.52;43.54
23118;BME280;11728;50.624;6.014;2023-04-03T08:39:54;99495.91;;;18.12;42.82
23118;BME280;11728;50.624;6.014;2023-04-03T08:45:01;99493.09;;;17.90;40.62
23118;BME280;11728;50.624;6.014;2023-04-03T08:50:15;99512.63;;;16.44;42.02
23118;BME280;11728;50.624;6.014;2023-04-03T08:55:27;99515.25;;;17.07;40.92
23118;BME280;11728;50.624;6.014;2023-04-03T09:00:32;99513.00;;;17.53;39.89
23118;BME280;11728;50.624;6.014;2023-04-03T09:10:40;99508.13;;;18.46;38.55
23118;BME280;11728;50.624;6.014;2023-04-03T09:15:43;99509.53;;;19.05;37.08
23118;BME280;11728;50.624;6.014;2023-04-03T09:26:07;99510.56;;;18.53;37.90
23118;BME280;11728;50.624;6.014;2023-04-03T09:31:18;99505.91;;;17.52;38.31
23118;BME280;11728;50.624;6.014;2023-04-03T09:36:45;99513.91;;;18.34;36.15
23118;BME280;11728;50.624;6.014;2023-04-03T09:42:01;99498.66;;;18.62;36.55
23118;BME280;11728;50.624;6.014;2023-04-03T09:47:24;99507.09;;;18.99;34.57
23118;BME280;11728;50.624;6.014;2023-04-03T09:52:26;99504.91;;;17.27;36.40
23118;BME280;11728;50.624;6.014;2023-04-03T09:57:32;99494.09;;;17.59;36.32
23118;BME280;11728;50.624;6.014;2023-04-03T10:07:37;99490.22;;;18.72;34.46
23118;BME280;11728;50.624;6.014;2023-04-03T10:12:37;99503.44;;;18.28;35.03
23118;BME280;11728;50.624;6.014;2023-04-03T10:23:15;99472.38;;;20.09;33.33
23118;BME280;11728;50.624;6.014;2023-04-03T10:28:27;99478.13;;;20.00;32.45
23118;BME280;11728;50.624;6.014;2023-04-03T10:49:51;99463.97;;;20.77;31.41
23118;BME280;11728;50.624;6.014;2023-04-03T10:55:02;99458.41;;;20.82;29.61
23118;BME280;11728;50.624;6.014;2023-04-03T11:00:13;99460.22;;;20.81;29.48
23118;BME280;11728;50.624;6.014;2023-04-03T11:05:39;99460.69;;;20.09;29.15
23118;BME280;11728;50.624;6.014;2023-04-03T11:10:44;99460.34;;;20.38;30.23
23118;BME280;11728;50.624;6.014;2023-04-03T11:15:47;99442.56;;;20.76;29.60
23118;BME280;11728;50.624;6.014;2023-04-03T11:21:11;99452.00;;;20.64;28.29
23118;BME280;11728;50.624;6.014;2023-04-03T11:26:19;99439.28;;;20.89;27.82
23118;BME280;11728;50.624;6.014;2023-04-03T11:31:33;99432.16;;;20.28;27.50
23118;BME280;11728;50.624;6.014;2023-04-03T11:36:46;99424.25;;;20.45;28.06
23118;BME280;11728;50.624;6.014;2023-04-03T11:41:49;99420.69;;;21.03;27.06
23118;BME280;11728;50.624;6.014;2023-04-03T11:46:51;99422.72;;;21.35;26.91
23118;BME280;11728;50.624;6.014;2023-04-03T11:51:51;99418.41;;;20.76;26.74
23118;BME280;11728;50.624;6.014;2023-04-03T11:56:52;99418.94;;;20.24;26.34
23118;BME280;11728;50.624;6.014;2023-04-03T12:01:56;99399.72;;;19.72;27.47
23118;BME280;11728;50.624;6.014;2023-04-03T12:07:01;99407.06;;;20.29;26.56
23118;BME280;11728;50.624;6.014;2023-04-03T12:12:24;99393.91;;;19.82;26.61
23118;BME280;11728;50.624;6.014;2023-04-03T12:17:27;99395.91;;;19.56;26.38
23118;BME280;11728;50.624;6.014;2023-04-03T12:22:30;99390.19;;;19.65;25.76
23118;BME280;11728;50.624;6.014;2023-04-03T12:27:38;99376.88;;;19.83;26.24
23118;BME280;11728;50.624;6.014;2023-04-03T12:32:51;99383.97;;;20.25;26.05
23118;BME280;11728;50.624;6.014;2023-04-03T12:43:47;99365.28;;;20.82;25.05
23118;BME280;11728;50.624;6.014;2023-04-03T12:48:57;99373.34;;;20.03;24.41
23118;BME280;11728;50.624;6.014;2023-04-03T12:54:02;99373.13;;;20.28;25.60
23118;BME280;11728;50.624;6.014;2023-04-03T13:04:21;99355.84;;;19.73;25.31
23118;BME280;11728;50.624;6.014;2023-04-03T13:09:24;99348.31;;;19.41;26.21
23118;BME280;11728;50.624;6.014;2023-04-03T13:14:28;99348.72;;;19.52;25.82
23118;BME280;11728;50.624;6.014;2023-04-03T13:19:29;99337.41;;;19.45;26.15
23118;BME280;11728;50.624;6.014;2023-04-03T13:24:33;99340.56;;;19.33;25.83
23118;BME280;11728;50.624;6.014;2023-04-03T13:29:36;99342.75;;;19.01;26.59
23118;BME280;11728;50.624;6.014;2023-04-03T13:34:41;99344.28;;;18.85;25.82
23118;BME280;11728;50.624;6.014;2023-04-03T13:39:41;99346.84;;;18.18;25.80
23118;BME280;11728;50.624;6.014;2023-04-03T13:44:42;99338.31;;;19.00;26.40
23118;BME280;11728;50.624;6.014;2023-04-03T13:49:45;99340.09;;;18.78;26.36
23118;BME280;11728;50.624;6.014;2023-04-03T13:54:47;99330.13;;;18.60;25.73
23118;BME280;11728;50.624;6.014;2023-04-03T13:59:51;99322.50;;;18.26;26.52
23118;BME280;11728;50.624;6.014;2023-04-03T14:04:58;99314.75;;;18.43;26.78
23118;BME280;11728;50.624;6.014;2023-04-03T14:10:01;99335.88;;;18.01;26.41
23118;BME280;11728;50.624;6.014;2023-04-03T14:15:05;99327.25;;;17.43;26.06
23118;BME280;11728;50.624;6.014;2023-04-03T14:20:06;99327.16;;;16.92;26.73
23118;BME280;11728;50.624;6.014;2023-04-03T14:25:07;99345.47;;;16.46;26.70
23118;BME280;11728;50.624;6.014;2023-04-03T14:30:12;99334.63;;;16.20;26.62
23118;BME280;11728;50.624;6.014;2023-04-03T14:35:16;99328.44;;;16.50;26.88
23118;BME280;11728;50.624;6.014;2023-04-03T14:40:22;99320.13;;;16.60;27.26
23118;BME280;11728;50.624;6.014;2023-04-03T14:45:23;99317.59;;;16.56;27.17
23118;BME280;11728;50.624;6.014;2023-04-03T14:50:26;99302.16;;;16.38;26.88
23118;BME280;11728;50.624;6.014;2023-04-03T14:55:27;99303.59;;;15.87;28.06
23118;BME280;11728;50.624;6.014;2023-04-03T15:00:27;99299.13;;;15.56;28.35
23118;BME280;11728;50.624;6.014;2023-04-03T15:05:28;99295.56;;;15.22;28.83
23118;BME280;11728;50.624;6.014;2023-04-03T15:10:29;99289.28;;;14.90;29.19
23118;BME280;11728;50.624;6.014;2023-04-03T15:15:30;99286.75;;;14.84;29.48
23118;BME280;11728;50.624;6.014;2023-04-03T15:20:31;99281.66;;;14.75;30.46
23118;BME280;11728;50.624;6.014;2023-04-03T15:25:33;99291.13;;;14.08;29.38
23118;BME280;11728;50.624;6.014;2023-04-03T15:30:36;99291.91;;;13.69;30.10
23118;BME280;11728;50.624;6.014;2023-04-03T15:35:39;99286.63;;;13.66;29.66
23118;BME280;11728;50.624;6.014;2023-04-03T15:40:40;99301.28;;;13.40;30.42
23118;BME280;11728;50.624;6.014;2023-04-03T15:45:40;99304.31;;;13.19;30.66
23118;BME280;11728;50.624;6.014;2023-04-03T15:50:42;99295.72;;;13.05;30.96
23118;BME280;11728;50.624;6.014;2023-04-03T15:55:42;99303.91;;;12.90;30.62
23118;BME280;11728;50.624;6.014;2023-04-03T16:00:43;99308.69;;;12.66;30.49
23118;BME280;11728;50.624;6.014;2023-04-03T16:05:43;99304.38;;;12.59;30.47
23118;BME280;11728;50.624;6.014;2023-04-03T16:10:44;99305.72;;;12.27;30.56
23118;BME280;11728;50.624;6.014;2023-04-03T16:15:47;99322.81;;;11.99;30.96
23118;BME280;11728;50.624;6.014;2023-04-03T16:20:48;99308.31;;;11.56;31.12
23118;BME280;11728;50.624;6.014;2023-04-03T16:25:49;99311.13;;;11.37;31.51
23118;BME280;11728;50.624;6.014;2023-04-03T16:30:50;99310.34;;;11.27;31.68
23118;BME280;11728;50.624;6.014;2023-04-03T16:35:52;99309.91;;;10.77;32.07
23118;BME280;11728;50.624;6.014;2023-04-03T16:40:53;99314.28;;;10.78;32.61
23118;BME280;11728;50.624;6.014;2023-04-03T16:45:57;99318.72;;;10.72;33.02
23118;BME280;11728;50.624;6.014;2023-04-03T16:50:59;99314.50;;;10.46;34.00
23118;BME280;11728;50.624;6.014;2023-04-03T16:55:59;99318.97;;;10.39;33.38
23118;BME280;11728;50.624;6.014;2023-04-03T17:01:09;99324.34;;;10.12;34.51
23118;BME280;11728;50.624;6.014;2023-04-03T17:06:12;99324.41;;;10.03;34.66
23118;BME280;11728;50.624;6.014;2023-04-03T17:11:16;99332.31;;;9.96;34.86
23118;BME280;11728;50.624;6.014;2023-04-03T17:16:17;99332.38;;;9.81;35.38
23118;BME280;11728;50.624;6.014;2023-04-03T17:21:17;99327.19;;;9.54;35.62
23118;BME280;11728;50.624;6.014;2023-04-03T17:26:18;99328.94;;;9.43;35.96
23118;BME280;11728;50.624;6.014;2023-04-03T17:31:18;99323.69;;;9.36;36.28
23118;BME280;11728;50.624;6.014;2023-04-03T17:36:19;99334.25;;;9.22;36.59
23118;BME280;11728;50.624;6.014;2023-04-03T17:41:19;99330.75;;;9.09;36.89
23118;BME280;11728;50.624;6.014;2023-04-03T17:46:20;99336.03;;;8.94;37.22
23118;BME280;11728;50.624;6.014;2023-04-03T17:51:22;99331.63;;;8.82;37.56
23118;BME280;11728;50.624;6.014;2023-04-03T17:56:24;99326.31;;;8.70;37.67
23118;BME280;11728;50.624;6.014;2023-04-03T18:01:33;99341.25;;;8.58;38.27
23118;BME280;11728;50.624;6.014;2023-04-03T18:06:44;99342.97;;;8.47;38.40
23118;BME280;11728;50.624;6.014;2023-04-03T18:11:47;99336.78;;;8.40;38.91
23118;BME280;11728;50.624;6.014;2023-04-03T18:16:47;99333.28;;;8.28;39.46
23118;BME280;11728;50.624;6.014;2023-04-03T18:21:49;99336.69;;;8.08;40.50
23118;BME280;11728;50.624;6.014;2023-04-03T18:26:53;99340.97;;;7.91;41.00
23118;BME280;11728;50.624;6.014;2023-04-03T18:31:55;99341.75;;;7.70;41.95
23118;BME280;11728;50.624;6.014;2023-04-03T18:36:56;99338.97;;;7.45;42.93
23118;BME280;11728;50.624;6.014;2023-04-03T18:42:01;99351.09;;;7.24;43.64
23118;BME280;11728;50.624;6.014;2023-04-03T18:47:03;99355.38;;;7.10;43.75
23118;BME280;11728;50.624;6.014;2023-04-03T18:52:03;99360.47;;;6.92;44.31
23118;BME280;11728;50.624;6.014;2023-04-03T18:57:04;99357.63;;;6.68;45.85
23118;BME280;11728;50.624;6.014;2023-04-03T19:02:05;99367.03;;;6.48;46.38
23118;BME280;11728;50.624;6.014;2023-04-03T19:07:08;99364.25;;;6.35;47.07
23118;BME280;11728;50.624;6.014;2023-04-03T19:12:09;99370.25;;;6.20;47.89
23118;BME280;11728;50.624;6.014;2023-04-03T19:17:09;99376.22;;;6.10;48.35
23118;BME280;11728;50.624;6.014;2023-04-03T19:22:10;99370.06;;;6.04;48.98
23118;BME280;11728;50.624;6.014;2023-04-03T19:27:10;99387.34;;;5.92;49.03
23118;BME280;11728;50.624;6.014;2023-04-03T19:32:10;99388.13;;;5.85;49.60
23118;BME280;11728;50.624;6.014;2023-04-03T19:37:11;99393.22;;;5.76;49.74
23118;BME280;11728;50.624;6.014;2023-04-03T19:42:13;99399.09;;;5.61;50.45
23118;BME280;11728;50.624;6.014;2023-04-03T19:47:15;99400.66;;;5.47;50.96
23118;BME280;11728;50.624;6.014;2023-04-03T19:52:17;99400.50;;;5.37;51.32
23118;BME280;11728;50.624;6.014;2023-04-03T19:57:17;99395.94;;;5.24;51.91
23118;BME280;11728;50.624;6.014;2023-04-03T20:02:18;99395.78;;;5.15;52.42
23118;BME280;11728;50.624;6.014;2023-04-03T20:07:20;99399.09;;;5.05;53.04
23118;BME280;11728;50.624;6.014;2023-04-03T20:12:20;99398.59;;;4.75;53.81
23118;BME280;11728;50.624;6.014;2023-04-03T20:17:21;99402.63;;;4.57;54.81
23118;BME280;11728;50.624;6.014;2023-04-03T20:22:23;99404.06;;;4.43;55.27
23118;BME280;11728;50.624;6.014;2023-04-03T20:27:25;99399.44;;;4.29;55.63
23118;BME280;11728;50.624;6.014;2023-04-03T20:32:25;99404.31;;;4.11;56.22
23118;BME280;11728;50.624;6.014;2023-04-03T20:37:26;99396.13;;;3.93;56.93
23118;BME280;11728;50.624;6.014;2023-04-03T20:42:27;99403.66;;;3.79;57.84
23118;BME280;11728;50.624;6.014;2023-04-03T20:47:27;99420.03;;;3.73;57.56
23118;BME280;11728;50.624;6.014;2023-04-03T20:52:28;99416.22;;;3.57;58.73
23118;BME280;11728;50.624;6.014;2023-04-03T20:57:28;99417.53;;;3.39;59.87
23118;BME280;11728;50.624;6.014;2023-04-03T21:02:31;99418.13;;;3.27;60.95
23118;BME280;11728;50.624;6.014;2023-04-03T21:24:02;99420.22;;;2.73;63.63
23118;BME280;11728;50.624;6.014;2023-04-03T21:29:06;99424.50;;;2.71;63.17
23118;BME280;11728;50.624;6.014;2023-04-03T21:34:07;99421.72;;;2.65;63.15
23118;BME280;11728;50.624;6.014;2023-04-03T21:39:07;99418.03;;;2.57;64.35
23118;BME280;11728;50.624;6.014;2023-04-03T21:44:08;99413.53;;;2.51;63.89
23118;BME280;11728;50.624;6.014;2023-04-03T21:49:08;99416.06;;;2.47;64.52
23118;BME280;11728;50.624;6.014;2023-04-03T21:54:09;99419.91;;;2.30;65.59
23118;BME280;11728;50.624;6.014;2023-04-03T21:59:09;99423.34;;;2.28;66.47
23118;BME280;11728;50.624;6.014;2023-04-03T22:04:10;99425.16;;;2.31;66.20
23118;BME280;11728;50.624;6.014;2023-04-03T22:09:10;99425.97;;;2.29;65.65
23118;BME280;11728;50.624;6.014;2023-04-03T22:14:11;99421.47;;;2.24;65.67
23118;BME280;11728;50.624;6.014;2023-04-03T22:19:12;99425.81;;;2.23;65.74
23118;BME280;11728;50.624;6.014;2023-04-03T22:24:13;99442.94;;;2.15;66.81
23118;BME280;11728;50.624;6.014;2023-04-03T22:29:17;99442.84;;;2.12;67.37
23118;BME280;11728;50.624;6.014;2023-04-03T22:34:18;99445.25;;;2.05;67.68
23118;BME280;11728;50.624;6.014;2023-04-03T22:39:19;99455.56;;;2.02;68.41
23118;BME280;11728;50.624;6.014;2023-04-03T22:44:19;99445.97;;;2.01;68.24
23118;BME280;11728;50.624;6.014;2023-04-03T22:49:20;99445.84;;;1.96;67.38
23118;BME280;11728;50.624;6.014;2023-04-03T22:54:20;99442.13;;;1.88;68.03
23118;BME280;11728;50.624;6.014;2023-04-03T22:59:21;99432.44;;;1.83;68.18
23118;BME280;11728;50.624;6.014;2023-04-03T23:04:21;99432.31;;;1.78;67.99
23118;BME280;11728;50.624;6.014;2023-04-03T23:09:21;99420.78;;;1.70;68.02
23118;BME280;11728;50.624;6.014;2023-04-03T23:14:22;99408.44;;;1.63;68.55
23118;BME280;11728;50.624;6.014;2023-04-03T23:19:22;99415.00;;;1.52;69.12
23118;BME280;11728;50.624;6.014;2023-04-03T23:24:23;99409.75;;;1.50;69.26
23118;BME280;11728;50.624;6.014;2023-04-03T23:29:23;99395.97;;;1.53;69.00
23118;BME280;11728;50.624;6.014;2023-04-03T23:34:23;99392.25;;;1.46;69.84
23118;BME280;11728;50.624;6.014;2023-04-03T23:39:24;99385.75;;;1.32;70.63
23118;BME280;11728;50.624;6.014;2023-04-03T23:44:25;99389.66;;;1.18;71.80
23118;BME280;11728;50.624;6.014;2023-04-03T23:49:25;99400.56;;;1.06;72.17
23118;BME280;11728;50.624;6.014;2023-04-03T23:54:26;99399.69;;;1.06;73.09
23118;BME280;11728;50.624;6.014;2023-04-03T23:59:26;99408.31;;;1.05;73.03
